Página principal
METAR-TAF:

METAR-TAF

Aeroportos :

Porto Santo, Portugal

Aeroporto do Porto Santo

latitude: 33-04N, longitude: 016-21W, altura: 97 m

Observação actual do tempo

O boletim foi feito há 30 minutos, às 17:00 UTC
Vento 12 kt de nor-nordeste, variando entre nor-noroeste e es-nordeste
Temperatura 21°C
Humidade 56%
Pressão 1019 hPa
Visibilidade 10 km ou mais
Poucas nuvensa uma altura de 1500 ft

METAR: LPPS 221700Z 03012KT 340V060 9999 FEW015 21/12 Q1019

Hora: 18:30 (17:30 UTC)

Previsão

O boletim foi feito há 6 horas e 30 minutos, às 11:00 UTC
Previsão válida de 22 às 12 UTC a 23 às 18 UTC
Vento 13 kt de nor-nordeste
Visibilidade 10 km ou mais
Nuvens dispersasa uma altura de 1500 ft
Nuvens dispersasa uma altura de 3000 ft
Tornando-se
de 23 às 14 UTC a 23 às 16 UTC
Vento 12 kt de norte
Nuvens dispersasa uma altura de 1500 ft

TAF: LPPS 221100Z 2212/2318 03013KT 9999 SCT015 SCT030 BECMG 2314/2316 35012KT SCT015

Observações e previsões do tempo de mais de 4000 aeroportos (mensagens METAR e TAF).

As estações disponíveis são os pontos amarelos e vermelhos sobre o mapa.

Mova o rato sobre o mapa para ver o nome da estação.

Depois clique no ponto para visualizar as observações e previsões meteorológicas.

Para alterar o mapa : clique nos botões verdes com uma cruz preta para aumentar o zoom; no botão verde com uma pitada de zoom; ou nas setas verdes para mapas adjacentes.


METAR-TAF: